createdAt,value
2023-05-19T00:01:49.278Z,5.88
2023-05-19T00:04:18.013Z,5.90
2023-05-19T00:06:52.226Z,6.13
2023-05-19T00:09:20.310Z,5.78
2023-05-19T00:11:48.412Z,6.22
2023-05-19T00:14:18.391Z,6.10
2023-05-19T00:16:47.493Z,6.30
2023-05-19T00:19:16.792Z,6.68
2023-05-19T00:21:44.822Z,6.43
2023-05-19T00:24:13.121Z,6.07
2023-05-19T00:26:41.102Z,6.40
2023-05-19T00:29:09.005Z,6.18
2023-05-19T00:31:38.206Z,6.10
2023-05-19T00:34:06.575Z,6.28
2023-05-19T00:36:34.401Z,6.10
2023-05-19T00:39:02.199Z,6.38
2023-05-19T00:41:30.304Z,6.55
2023-05-19T00:43:58.455Z,6.30
2023-05-19T00:46:26.629Z,6.45
2023-05-19T00:48:55.827Z,6.40
2023-05-19T00:51:24.960Z,6.05
2023-05-19T00:53:53.143Z,6.60
2023-05-19T00:56:22.410Z,6.70
2023-05-19T00:58:52.551Z,5.93
2023-05-19T01:01:21.518Z,6.13
2023-05-19T01:03:49.870Z,6.18
2023-05-19T01:06:20.834Z,6.65
2023-05-19T01:08:48.744Z,8.40
2023-05-19T01:11:16.600Z,6.07
2023-05-19T01:13:44.998Z,6.47
2023-05-19T01:16:17.052Z,6.10
2023-05-19T01:18:51.540Z,6.10
2023-05-19T01:21:44.407Z,6.65
2023-05-19T01:24:34.077Z,6.40
2023-05-19T01:27:24.912Z,5.93
2023-05-19T01:30:34.885Z,6.57
2023-05-19T01:33:07.777Z,6.37
2023-05-19T01:35:37.613Z,6.32
2023-05-19T01:38:08.920Z,6.05
2023-05-19T01:40:37.840Z,5.90
2023-05-19T01:43:07.251Z,6.43
2023-05-19T01:45:35.822Z,6.30
2023-05-19T01:48:08.407Z,6.47
2023-05-19T01:50:37.963Z,7.13
2023-05-19T01:53:05.821Z,6.60
2023-05-19T01:55:33.766Z,6.78
2023-05-19T01:58:10.490Z,6.90
2023-05-19T02:00:52.376Z,6.70
2023-05-19T02:03:33.940Z,6.82
2023-05-19T02:06:10.402Z,7.38
2023-05-19T02:08:44.588Z,7.40
2023-05-19T02:11:21.583Z,7.20
2023-05-19T02:13:53.502Z,7.10
2023-05-19T02:16:22.993Z,6.90
2023-05-19T02:18:53.891Z,7.03
2023-05-19T02:21:21.806Z,6.50
2023-05-19T02:23:50.026Z,7.07
2023-05-19T02:26:17.874Z,6.70
2023-05-19T02:28:45.712Z,6.88
2023-05-19T02:31:13.495Z,6.72
2023-05-19T02:33:42.904Z,6.70
2023-05-19T02:36:14.384Z,6.30
2023-05-19T02:38:42.250Z,6.80
2023-05-19T02:41:10.091Z,6.45
2023-05-19T02:43:37.909Z,6.65
2023-05-19T02:46:05.820Z,6.70
2023-05-19T02:48:33.681Z,6.68
2023-05-19T02:51:01.492Z,6.47
2023-05-19T02:53:31.674Z,7.10
2023-05-19T02:55:59.456Z,6.28
2023-05-19T02:58:27.385Z,6.80
2023-05-19T03:00:55.969Z,6.60
2023-05-19T03:03:24.118Z,7.28
2023-05-19T03:05:53.608Z,6.43
2023-05-19T03:08:21.641Z,6.78
2023-05-19T03:10:50.950Z,6.65
2023-05-19T03:13:18.810Z,6.53
2023-05-19T03:15:47.345Z,6.80
2023-05-19T03:18:16.451Z,6.90
2023-05-19T03:20:44.610Z,6.93
2023-05-19T03:23:12.565Z,7.00
2023-05-19T03:25:40.503Z,6.90
2023-05-19T03:28:10.091Z,7.22
2023-05-19T03:30:37.951Z,6.85
2023-05-19T03:33:05.920Z,6.43
2023-05-19T03:35:33.815Z,6.90
2023-05-19T03:38:01.684Z,7.50
2023-05-19T03:40:29.564Z,6.88
2023-05-19T03:42:57.696Z,7.25
2023-05-19T03:45:26.914Z,7.60
2023-05-19T03:47:54.832Z,7.00
2023-05-19T03:50:23.047Z,6.80
2023-05-19T03:52:50.968Z,6.85
2023-05-19T03:55:20.110Z,8.95
2023-05-19T03:57:48.589Z,7.32
2023-05-19T04:00:17.345Z,7.05
2023-05-19T04:02:46.629Z,7.00
2023-05-19T04:05:15.721Z,7.43
2023-05-19T04:07:45.034Z,6.97
2023-05-19T04:10:13.669Z,7.23
2023-05-19T04:12:41.602Z,7.38
2023-05-19T04:15:11.413Z,7.32
2023-05-19T04:17:39.392Z,7.22
2023-05-19T04:20:09.927Z,7.25
2023-05-19T04:22:37.761Z,7.25
2023-05-19T04:25:06.215Z,8.10
2023-05-19T04:27:36.619Z,7.80
2023-05-19T04:30:05.870Z,7.07
2023-05-19T04:32:33.825Z,7.40
2023-05-19T04:35:03.206Z,7.38
2023-05-19T04:37:32.552Z,7.65
2023-05-19T04:40:00.367Z,7.53
2023-05-19T04:42:30.594Z,6.93
2023-05-19T04:44:58.490Z,7.65
2023-05-19T04:47:28.119Z,6.90
2023-05-19T04:49:56.324Z,7.28
2023-05-19T04:52:24.235Z,7.55
2023-05-19T04:54:54.144Z,7.60
2023-05-19T04:57:21.963Z,7.15
2023-05-19T04:59:50.027Z,7.32
2023-05-19T05:02:17.967Z,7.68
2023-05-19T05:04:46.473Z,7.45
2023-05-19T05:07:14.416Z,7.28
2023-05-19T05:09:42.283Z,7.07
2023-05-19T05:12:13.776Z,7.55
2023-05-19T05:14:42.254Z,7.55
2023-05-19T05:17:11.695Z,7.32
2023-05-19T05:19:39.993Z,7.45
2023-05-19T05:22:08.434Z,6.97
2023-05-19T05:24:36.908Z,7.35
2023-05-19T05:27:05.735Z,7.10
2023-05-19T05:29:35.133Z,6.90
2023-05-19T05:32:03.248Z,7.22
2023-05-19T05:34:31.882Z,7.28
2023-05-19T05:36:59.735Z,6.80
2023-05-19T05:39:28.682Z,6.47
2023-05-19T05:41:56.641Z,6.85
2023-05-19T05:44:24.494Z,6.90
2023-05-19T05:46:54.165Z,7.00
2023-05-19T05:49:22.456Z,7.00
2023-05-19T05:52:05.109Z,6.75
2023-05-19T05:54:35.078Z,7.13
2023-05-19T05:57:04.061Z,6.38
2023-05-19T05:59:33.748Z,6.57
2023-05-19T06:02:03.042Z,6.68
2023-05-19T06:04:30.984Z,6.65
2023-05-19T06:07:01.580Z,6.80
2023-05-19T06:09:30.199Z,6.80
2023-05-19T06:12:00.048Z,6.25
2023-05-19T06:14:27.992Z,6.47
2023-05-19T06:16:55.939Z,6.07
2023-05-19T06:19:25.710Z,6.40
2023-05-19T06:21:53.673Z,5.95
2023-05-19T06:24:21.536Z,5.80
2023-05-19T06:26:49.441Z,6.47
2023-05-19T06:29:17.303Z,5.82
2023-05-19T06:31:45.697Z,6.13
2023-05-19T06:34:17.434Z,6.55
2023-05-19T06:36:46.701Z,6.73
2023-05-19T06:39:14.548Z,6.60
2023-05-19T06:41:42.469Z,6.38
2023-05-19T06:44:10.444Z,6.18
2023-05-19T06:46:38.345Z,6.28
2023-05-19T06:49:06.238Z,6.20
2023-05-19T06:51:35.297Z,5.95
2023-05-19T06:54:04.628Z,5.77
2023-05-19T06:56:32.532Z,6.10
2023-05-19T06:59:00.385Z,5.72
2023-05-19T07:01:30.067Z,5.60
2023-05-19T07:03:58.187Z,6.15
2023-05-19T07:06:26.174Z,5.80
2023-05-19T07:08:54.000Z,5.90
2023-05-19T07:11:23.707Z,6.53
2023-05-19T07:13:51.630Z,6.25
2023-05-19T07:16:19.632Z,5.90
2023-05-19T07:18:47.528Z,5.65
2023-05-19T07:21:15.671Z,5.80
2023-05-19T07:23:43.484Z,6.30
2023-05-19T07:26:11.600Z,6.07
2023-05-19T07:28:42.460Z,6.20
2023-05-19T07:31:11.052Z,6.20
2023-05-19T07:33:38.886Z,5.18
2023-05-19T07:36:06.981Z,4.85
2023-05-19T07:38:35.678Z,5.78
2023-05-19T07:41:04.378Z,5.60
2023-05-19T07:43:32.520Z,5.65
2023-05-19T07:46:01.897Z,6.95
2023-05-19T07:48:29.872Z,6.60
2023-05-19T07:50:57.739Z,8.90
2023-05-19T07:53:25.931Z,6.80
2023-05-19T07:55:54.384Z,7.00
2023-05-19T07:58:22.915Z,6.63
2023-05-19T08:00:50.856Z,6.88
2023-05-19T08:03:21.049Z,6.40
2023-05-19T08:05:49.311Z,7.18
2023-05-19T08:08:17.183Z,7.00
2023-05-19T08:10:45.088Z,6.70
2023-05-19T08:13:13.143Z,6.70
2023-05-19T08:15:41.252Z,6.88
2023-05-19T08:18:09.548Z,6.75
2023-05-19T08:20:38.777Z,5.85
2023-05-19T08:23:06.648Z,6.53
2023-05-19T08:25:34.510Z,6.22
2023-05-19T08:28:02.491Z,6.57
2023-05-19T08:30:30.538Z,7.15
2023-05-19T08:32:59.075Z,7.20
2023-05-19T08:35:27.125Z,7.22
2023-05-19T08:37:56.381Z,7.20
2023-05-19T08:40:24.341Z,7.07
2023-05-19T08:42:52.417Z,7.40
2023-05-19T08:45:20.440Z,7.25
2023-05-19T08:47:48.304Z,7.18
2023-05-19T08:50:21.290Z,7.13
2023-05-19T08:52:53.557Z,7.07
2023-05-19T08:55:35.379Z,6.90
2023-05-19T08:58:05.398Z,7.35
2023-05-19T09:00:34.681Z,6.80
2023-05-19T09:03:17.749Z,6.78
2023-05-19T09:05:51.658Z,7.03
2023-05-19T09:08:19.609Z,7.20
2023-05-19T09:10:48.854Z,6.70
2023-05-19T09:13:16.836Z,6.20
2023-05-19T09:15:46.380Z,6.57
2023-05-19T09:18:15.226Z,6.70
2023-05-19T09:20:46.028Z,6.90
2023-05-19T09:23:15.009Z,6.70
2023-05-19T09:25:54.519Z,7.22
2023-05-19T09:28:27.063Z,6.75
2023-05-19T09:31:02.509Z,6.95
2023-05-19T09:33:30.952Z,6.97
2023-05-19T09:35:58.946Z,6.53
2023-05-19T09:38:27.486Z,6.55
2023-05-19T09:40:58.237Z,6.40
2023-05-19T09:43:28.877Z,7.00
2023-05-19T09:46:00.274Z,6.45
2023-05-19T09:48:28.689Z,6.43
2023-05-19T09:50:57.171Z,6.32
2023-05-19T09:53:26.204Z,6.63
2023-05-19T09:55:58.724Z,6.03
2023-05-19T09:58:27.000Z,6.38
2023-05-19T10:00:55.362Z,6.60
2023-05-19T10:03:24.006Z,6.50
2023-05-19T10:05:54.000Z,6.32
2023-05-19T10:08:24.061Z,6.53
2023-05-19T10:10:52.069Z,6.60
2023-05-19T10:13:23.503Z,6.57
2023-05-19T10:18:26.872Z,6.78
2023-05-19T10:20:55.807Z,7.40
2023-05-19T10:23:23.985Z,6.80
2023-05-19T10:25:55.796Z,7.43
2023-05-19T10:28:28.346Z,7.63
2023-05-19T10:30:59.894Z,7.30
2023-05-19T10:33:34.464Z,7.78
2023-05-19T10:36:15.880Z,7.82
2023-05-19T10:38:49.974Z,7.75
2023-05-19T10:41:26.045Z,8.57
2023-05-19T10:44:05.886Z,8.13
2023-05-19T10:46:33.990Z,8.45
2023-05-19T10:49:01.850Z,8.38
2023-05-19T10:51:31.680Z,8.90
2023-05-19T10:54:02.675Z,8.32
2023-05-19T10:56:33.643Z,8.43
2023-05-19T10:59:03.953Z,8.15
2023-05-19T11:01:34.222Z,8.55
2023-05-19T11:04:07.113Z,8.57
2023-05-19T11:06:37.703Z,8.55
2023-05-19T11:09:13.735Z,8.43
2023-05-19T11:11:47.617Z,9.10
2023-05-19T11:14:19.537Z,8.18
2023-05-19T11:16:51.951Z,8.18
2023-05-19T11:19:21.295Z,8.48
2023-05-19T11:21:50.440Z,9.00
2023-05-19T11:24:37.346Z,8.73
2023-05-19T11:27:25.885Z,8.93
2023-05-19T11:29:57.065Z,9.15
2023-05-19T11:32:28.632Z,8.73
2023-05-19T11:34:57.167Z,8.90
2023-05-19T11:37:25.142Z,8.30
2023-05-19T11:39:53.710Z,8.88
2023-05-19T11:42:21.731Z,8.27
2023-05-19T11:44:50.096Z,8.50
2023-05-19T11:47:19.217Z,8.23
2023-05-19T11:49:49.489Z,8.82
2023-05-19T11:52:17.466Z,8.90
2023-05-19T11:54:49.880Z,8.80
2023-05-19T11:57:18.073Z,9.05
2023-05-19T11:59:48.117Z,9.10
2023-05-19T12:02:20.052Z,9.82
2023-05-19T12:04:49.276Z,9.43
2023-05-19T12:07:18.546Z,9.40
2023-05-19T12:09:47.174Z,9.63
2023-05-19T12:12:16.889Z,9.00
2023-05-19T12:14:45.296Z,9.73
2023-05-19T12:17:14.310Z,9.70
2023-05-19T12:19:45.005Z,10.80
2023-05-19T12:22:13.548Z,10.00
2023-05-19T12:24:42.706Z,9.98
2023-05-19T12:27:17.980Z,9.75
2023-05-19T12:29:50.876Z,10.70
2023-05-19T12:32:18.889Z,11.00
2023-05-19T12:34:48.130Z,10.97
2023-05-19T12:37:16.121Z,10.18
2023-05-19T12:39:44.320Z,10.38
2023-05-19T12:42:13.344Z,10.43
2023-05-19T12:44:47.326Z,10.68
2023-05-19T12:47:16.132Z,10.10
2023-05-19T12:49:57.785Z,10.60
2023-05-19T12:52:25.919Z,10.77
2023-05-19T12:55:00.753Z,11.10
2023-05-19T12:57:29.063Z,10.23
2023-05-19T13:00:01.737Z,10.95
2023-05-19T13:02:29.861Z,9.55
2023-05-19T13:04:59.567Z,10.70
2023-05-19T13:07:27.425Z,10.70
2023-05-19T13:09:55.316Z,10.32
2023-05-19T13:12:23.183Z,9.00
2023-05-19T13:14:51.975Z,10.00
2023-05-19T13:17:21.266Z,9.60
2023-05-19T13:19:49.113Z,9.50
2023-05-19T13:22:18.396Z,10.00
2023-05-19T13:24:46.200Z,9.63
2023-05-19T13:27:14.143Z,8.60
2023-05-19T13:29:42.054Z,8.70
2023-05-19T13:32:09.835Z,8.60
2023-05-19T13:34:39.470Z,9.43
2023-05-19T13:37:10.081Z,8.27
2023-05-19T13:39:40.422Z,8.63
2023-05-19T13:42:08.252Z,8.70
2023-05-19T13:44:36.319Z,8.93
2023-05-19T13:47:04.302Z,8.68
2023-05-19T13:49:32.267Z,8.80
2023-05-19T13:52:00.588Z,9.57
2023-05-19T13:54:28.524Z,9.93
2023-05-19T13:56:58.259Z,16.10
2023-05-19T13:59:26.806Z,9.27
2023-05-19T14:01:54.889Z,9.98
2023-05-19T14:04:23.605Z,9.00
2023-05-19T14:06:51.995Z,9.15
2023-05-19T14:09:19.841Z,9.30
2023-05-19T14:11:48.262Z,8.85
2023-05-19T14:14:17.557Z,9.00
2023-05-19T14:16:45.642Z,9.13
2023-05-19T14:19:13.602Z,8.25
2023-05-19T14:21:41.485Z,8.63
2023-05-19T14:24:09.356Z,8.35
2023-05-19T14:26:37.220Z,7.95
2023-05-19T14:29:05.183Z,8.60
2023-05-19T14:31:34.413Z,8.05
2023-05-19T14:34:02.313Z,8.52
2023-05-19T14:36:30.373Z,8.15
2023-05-19T14:38:58.260Z,9.10
2023-05-19T14:41:26.148Z,8.60
2023-05-19T14:43:54.239Z,10.25
2023-05-19T14:46:22.099Z,8.93
2023-05-19T14:48:51.294Z,8.43
2023-05-19T14:51:19.144Z,8.27
2023-05-19T14:53:47.051Z,7.80
2023-05-19T14:56:15.033Z,7.93
2023-05-19T14:58:42.945Z,7.80
2023-05-19T15:01:10.823Z,8.45
2023-05-19T15:03:38.698Z,8.38
2023-05-19T15:06:11.457Z,8.48
2023-05-19T15:08:40.669Z,8.20
2023-05-19T15:11:08.643Z,8.30
2023-05-19T15:13:36.616Z,8.27
2023-05-19T15:16:15.632Z,8.60
2023-05-19T15:18:45.198Z,8.23
2023-05-19T15:21:14.609Z,8.03
2023-05-19T15:23:42.460Z,9.00
2023-05-19T15:26:10.439Z,13.18
2023-05-19T15:28:38.363Z,9.02
2023-05-19T15:31:06.383Z,8.18
2023-05-19T15:33:34.283Z,8.23
2023-05-19T15:36:02.132Z,8.00
2023-05-19T15:38:31.312Z,9.15
2023-05-19T15:40:59.268Z,7.78
2023-05-19T15:43:27.093Z,8.52
2023-05-19T15:45:56.057Z,8.20
2023-05-19T15:48:24.394Z,7.90
2023-05-19T15:50:52.386Z,7.60
2023-05-19T15:53:20.369Z,7.90
2023-05-19T15:55:49.580Z,8.32
2023-05-19T15:58:17.697Z,8.25
2023-05-19T16:00:45.612Z,7.03
2023-05-19T16:03:13.767Z,7.70
2023-05-19T16:05:41.684Z,7.55
2023-05-19T16:08:09.518Z,7.05
2023-05-19T16:10:37.359Z,7.95
2023-05-19T16:13:06.528Z,7.70
2023-05-19T16:15:34.458Z,8.00
2023-05-19T16:18:02.375Z,8.48
2023-05-19T16:20:30.896Z,8.40
2023-05-19T16:22:58.830Z,8.43
2023-05-19T16:25:26.753Z,7.90
2023-05-19T16:27:54.587Z,8.35
2023-05-19T16:30:26.164Z,9.20
2023-05-19T16:32:54.381Z,8.02
2023-05-19T16:35:22.531Z,7.75
2023-05-19T16:37:50.524Z,8.35
2023-05-19T16:40:18.574Z,7.45
2023-05-19T16:42:46.429Z,7.25
2023-05-19T16:45:17.260Z,7.70
2023-05-19T16:47:46.498Z,7.53
2023-05-19T16:50:23.869Z,7.15
2023-05-19T16:52:52.664Z,7.47
2023-05-19T16:55:23.536Z,6.90
2023-05-19T16:57:55.603Z,7.32
2023-05-19T17:00:31.739Z,8.05
2023-05-19T17:03:01.697Z,7.03
2023-05-19T17:05:29.605Z,6.93
2023-05-19T17:07:57.518Z,7.10
2023-05-19T17:10:25.821Z,7.47
2023-05-19T17:12:53.691Z,7.05
2023-05-19T17:15:21.622Z,7.35
2023-05-19T17:17:49.830Z,8.38
2023-05-19T17:20:19.178Z,7.97
2023-05-19T17:22:47.060Z,7.00
2023-05-19T17:25:15.094Z,6.88
2023-05-19T17:27:42.947Z,6.82
2023-05-19T17:30:11.520Z,6.97
2023-05-19T17:32:39.673Z,7.47
2023-05-19T17:35:08.672Z,7.32
2023-05-19T17:37:37.968Z,7.18
2023-05-19T17:40:06.968Z,7.43
2023-05-19T17:42:34.902Z,7.25
2023-05-19T17:45:04.263Z,7.25
2023-05-19T17:47:32.147Z,7.25
2023-05-19T17:50:00.608Z,7.13
2023-05-19T17:52:28.912Z,6.95
2023-05-19T17:54:59.339Z,6.60
2023-05-19T17:57:34.727Z,7.18
2023-05-19T18:00:06.842Z,7.38
2023-05-19T18:02:35.469Z,6.95
2023-05-19T18:05:04.089Z,7.03
2023-05-19T18:07:38.515Z,6.17
2023-05-19T18:10:10.484Z,7.03
2023-05-19T18:12:38.336Z,6.60
2023-05-19T18:15:07.227Z,7.25
2023-05-19T18:17:35.448Z,6.60
2023-05-19T18:20:03.392Z,7.03
2023-05-19T18:22:31.323Z,6.43
2023-05-19T18:24:59.288Z,6.57
2023-05-19T18:27:28.799Z,6.43
2023-05-19T18:29:56.659Z,6.47
2023-05-19T18:32:24.561Z,6.97
2023-05-19T18:34:52.535Z,6.72
2023-05-19T18:37:20.614Z,6.82
2023-05-19T18:39:48.570Z,6.57
2023-05-19T18:42:16.396Z,7.65
2023-05-19T18:44:46.794Z,6.90
2023-05-19T18:47:14.993Z,7.10
2023-05-19T18:49:43.069Z,7.18
2023-05-19T18:52:11.077Z,7.35
2023-05-19T18:54:40.515Z,7.87
2023-05-19T18:57:08.360Z,7.10
2023-05-19T18:59:36.344Z,7.10
2023-05-19T19:02:05.854Z,7.60
2023-05-19T19:04:33.987Z,7.40
2023-05-19T19:07:02.001Z,7.85
2023-05-19T19:09:29.846Z,7.97
2023-05-19T19:11:57.680Z,8.35
2023-05-19T19:14:25.565Z,7.68
2023-05-19T19:16:53.537Z,7.28
2023-05-19T19:19:23.720Z,7.55
2023-05-19T19:21:51.769Z,7.30
2023-05-19T19:24:19.580Z,7.27
2023-05-19T19:26:47.380Z,7.40
2023-05-19T19:29:16.637Z,8.00
2023-05-19T19:31:44.666Z,8.23
2023-05-19T19:34:13.502Z,8.40
2023-05-19T19:36:43.846Z,7.72
2023-05-19T19:39:11.935Z,8.60
2023-05-19T19:41:40.863Z,8.20
2023-05-19T19:44:08.938Z,8.40
2023-05-19T19:46:36.913Z,7.57
2023-05-19T19:49:05.048Z,7.28
2023-05-19T19:51:32.918Z,7.75
2023-05-19T19:54:02.107Z,7.70
2023-05-19T19:56:30.004Z,8.10
2023-05-19T19:58:59.109Z,8.10
2023-05-19T20:01:28.149Z,8.05
2023-05-19T20:03:57.720Z,7.72
2023-05-19T20:06:25.891Z,7.90
2023-05-19T20:08:53.834Z,7.68
2023-05-19T20:11:24.406Z,8.27
2023-05-19T20:13:52.523Z,8.90
2023-05-19T20:16:20.750Z,8.67
2023-05-19T20:18:48.765Z,8.55
2023-05-19T20:21:16.809Z,8.35
2023-05-19T20:23:44.604Z,9.45
2023-05-19T20:26:13.568Z,9.32
2023-05-19T20:28:43.082Z,8.65
2023-05-19T20:31:11.014Z,8.90
2023-05-19T20:33:39.149Z,8.90
2023-05-19T20:36:07.774Z,9.02
2023-05-19T20:38:35.655Z,8.05
2023-05-19T20:41:03.795Z,7.68
2023-05-19T20:43:32.757Z,7.15
2023-05-19T20:46:03.609Z,7.10
2023-05-19T20:48:31.695Z,6.88
2023-05-19T20:50:59.628Z,6.77
2023-05-19T20:53:27.534Z,6.55
2023-05-19T20:55:55.377Z,6.47
2023-05-19T20:58:26.454Z,6.30
2023-05-19T21:00:57.563Z,6.57
2023-05-19T21:03:28.354Z,6.22
2023-05-19T21:05:56.297Z,5.80
2023-05-19T21:08:24.475Z,6.07
2023-05-19T21:10:52.571Z,5.93
2023-05-19T21:13:20.390Z,5.95
2023-05-19T21:15:48.378Z,5.40
2023-05-19T21:18:16.199Z,5.82
2023-05-19T21:20:45.362Z,5.28
2023-05-19T21:23:13.210Z,4.95
2023-05-19T21:25:41.325Z,5.10
2023-05-19T21:28:09.815Z,4.72
2023-05-19T21:30:37.683Z,4.75
2023-05-19T21:33:05.687Z,4.53
2023-05-19T21:35:33.553Z,4.30
2023-05-19T21:38:12.132Z,4.70
2023-05-19T21:40:50.318Z,4.30
2023-05-19T21:43:18.219Z,4.65
2023-05-19T21:45:46.054Z,4.00
2023-05-19T21:48:13.938Z,4.28
2023-05-19T21:50:41.931Z,4.40
2023-05-19T21:53:11.149Z,4.33
2023-05-19T21:55:39.282Z,4.32
2023-05-19T21:58:07.135Z,4.40
2023-05-19T22:00:36.620Z,4.00
2023-05-19T22:03:05.077Z,3.78
2023-05-19T22:05:35.044Z,4.20
2023-05-19T22:08:02.895Z,4.50
2023-05-19T22:10:32.231Z,4.25
2023-05-19T22:13:00.365Z,4.50
2023-05-19T22:15:28.286Z,4.50
2023-05-19T22:17:56.233Z,4.38
2023-05-19T22:20:24.450Z,4.63
2023-05-19T22:22:52.310Z,4.30
2023-05-19T22:25:20.381Z,4.53
2023-05-19T22:27:49.562Z,4.68
2023-05-19T22:30:17.419Z,4.68
2023-05-19T22:32:45.308Z,4.63
2023-05-19T22:35:13.353Z,4.47
2023-05-19T22:37:41.207Z,4.60
2023-05-19T22:40:09.698Z,4.30
2023-05-19T22:42:37.565Z,4.90
2023-05-19T22:45:07.911Z,4.88
2023-05-19T22:47:35.997Z,4.55
2023-05-19T22:50:04.055Z,4.40
2023-05-19T22:52:31.884Z,5.28
2023-05-19T22:54:59.684Z,4.75
2023-05-19T22:57:27.548Z,4.63
2023-05-19T22:59:55.788Z,4.97
2023-05-19T23:02:25.079Z,4.70
2023-05-19T23:04:53.045Z,5.10
2023-05-19T23:07:20.889Z,5.30
2023-05-19T23:09:48.725Z,5.28
2023-05-19T23:12:16.707Z,5.30
2023-05-19T23:14:44.651Z,5.25
2023-05-19T23:17:12.521Z,5.60
2023-05-19T23:19:41.805Z,5.30
2023-05-19T23:22:11.192Z,5.30
2023-05-19T23:24:39.584Z,5.25
2023-05-19T23:27:07.888Z,5.13
2023-05-19T23:29:35.748Z,5.20
2023-05-19T23:32:03.566Z,5.37
2023-05-19T23:34:31.445Z,5.20
2023-05-19T23:37:00.630Z,5.30
2023-05-19T23:39:28.427Z,5.15
2023-05-19T23:41:56.283Z,5.20
2023-05-19T23:44:24.135Z,5.32
2023-05-19T23:46:51.994Z,5.47
2023-05-19T23:49:20.397Z,5.50
2023-05-19T23:51:48.191Z,5.45
2023-05-19T23:54:17.351Z,5.57
2023-05-19T23:56:45.322Z,5.40
2023-05-19T23:59:13.118Z,5.63
